Aérodrome :
LOGIN :

S'inscrire | Disclaimer

   EN    FR    IT 

 










Légende :    VFR   VFR Marginal   IFR   IFR Intensif   IFR Très Intensif
Visi : 
Plafond : 
>= 8 km
>= 3000ft
5 à 8 km
1000 à 3000 ft
1500m à 5 km
500 à 1000 ft
800 à 1500m
200 à 500 ft
< 800m
< 200 ft
Symboles :   Orages  Brouillard  Fortes neiges  Fortes précipitations  Vent > 20 kt
SIGMETs :   Divers  Orages  Givrage  Turbulence  Onde Orograph.  Cendres Volcan.







- Altitude de l'aérodrome : 461 ft
- Code IATA : WIE


ETOU - Wiesbaden Army

DERNIER METAR :
  • 251656Z AUTO 36008KT 9999 SCT100 23/11 A3019 RMK AO2 SLP222 T02260113 $

METARs EXPIRÉS :
  • 251556Z AUTO 32005KT 9999 BKN065 BKN110 23/12 A3020 RMK AO2 SLP226 T02320116 $
  • 251456Z AUTO 34006KT 9999 BKN060 23/10 A3020 RMK AO2 DZB01E07 SLP225 P0000 60000 T02330100 56004 $

TAF TAF ETOU
Valide du 25 à 11h jusqu'au 26 à 17h UTC


251105Z 2511/2617 35009KT 9999 BKN030 QNH3019INS
BECMG 2601/2602 33006KT 8000 BR SCT020 BKN040 QNH3020INS
BECMG 2605/2606 35009KT 9999 NSW SCT020 QNH3016INS TX22/2515Z TN09/2604Z
Pas de NOTAMs connus pour ce terrain.



MET'MAP, la Météo Aéronautique d'un coup d'oeil ! - Copyright ORBIFLY Décembre 2007 - Disclaimer

ORBIFLY MET'MAP TEAM :

Programmation & Développement : Alexandra Zaïnal
Conception & Développement : Baudouin d'Aumeries
Co-Programmation & Développement : Marc-Olivier Méhu
Soutien technique & logistique : Manuel Goepfert

Contact : metmap@orbifly.com




SOURCES & CREDITS :

   NOAA